Time;durP1;ratioP1;P1;durP2;ratioP2;P2;SDS_P1;SDS_P2;PMS_P1;PMS_P2;Temp;Humidity;BMP_temperature;BMP_pressure;BME280_temperature;BME280_humidity;BME280_pressure;Samples;Min_cycle;Max_cycle;Signal;HPM_P1;HPM_P2
2022/04/23 00:02:14;;;;;;;;;;;;;;;4.01;75.56;97930.67;108548;1271;22669;-70
2022/04/23 00:04:40;;;;;;;;;;;;;;;3.97;75.47;97927.94;108536;1271;25452;-70
2022/04/23 00:07:07;;;;;;;;;;;;;;;3.93;75.28;97933.95;108542;1271;22658;-70
2022/04/23 00:09:34;;;;;;;;;;;;;;;3.91;75.05;97931.16;108541;1271;26220;-70
2022/04/23 00:12:01;;;;;;;;;;;;;;;3.88;74.89;97925.10;108546;1271;22652;-70
2022/04/23 00:14:28;;;;;;;;;;;;;;;3.85;74.61;97926.96;108538;1271;22595;-71
2022/04/23 00:16:57;;;;;;;;;;;;;;;3.82;74.56;97926.80;108542;1271;22754;-70
2022/04/23 00:19:24;;;;;;;;;;;;;;;3.81;74.56;97922.36;108519;1271;22687;-70
2022/04/23 00:21:51;;;;;;;;;;;;;;;3.81;74.51;97921.65;108539;1271;22672;-70
2022/04/23 00:24:17;;;;;;;;;;;;;;;3.80;75.10;97918.95;108538;1271;22552;-70
2022/04/23 00:26:45;;;;;;;;;;;;;;;3.77;75.43;97919.92;108534;1271;22590;-70
2022/04/23 00:29:11;;;;;;;;;;;;;;;3.74;75.58;97917.19;108512;1271;22665;-70
2022/04/23 00:31:38;;;;;;;;;;;;;;;3.70;75.48;97917.35;108543;1271;22531;-70
2022/04/23 00:34:05;;;;;;;;;;;;;;;3.67;75.47;97916.98;108527;1270;25245;-70
2022/04/23 00:36:32;;;;;;;;;;;;;;;3.64;75.15;97923.02;108556;1271;26557;-71
2022/04/23 00:38:59;;;;;;;;;;;;;;;3.60;74.92;97922.14;108568;1271;22563;-72
2022/04/23 00:41:45;;;;;;;;;;;;;;;3.55;74.73;97922.08;108549;1271;22510;-71
2022/04/23 00:44:12;;;;;;;;;;;;;;;3.50;74.95;97927.81;108529;1270;22547;-71
2022/04/23 00:46:39;;;;;;;;;;;;;;;3.45;74.95;97927.71;108572;1271;25235;-71
2022/04/23 00:49:06;;;;;;;;;;;;;;;3.40;74.84;97923.80;108569;1271;22576;-70
2022/04/23 00:51:33;;;;;;;;;;;;;;;3.36;74.78;97926.06;108538;1271;22522;-70
2022/04/23 00:54:05;;;;;;;;;;;;;;;3.32;74.88;97922.96;108748;1270;22671;-70
2022/04/23 00:56:33;;;;;;;;;;;;;;;3.28;74.81;97917.84;108808;1271;22597;-70
2022/04/23 00:59:01;;;;;;;;;;;;;;;3.24;74.95;97921.27;108769;1271;22558;-72
2022/04/23 01:01:28;;;;;;;;;;;;;;;3.23;74.83;97917.21;108668;1271;22515;-72
2022/04/23 01:03:57;;;;;;;;;;;;;;;3.24;75.04;97916.82;108541;1271;24468;-72
2022/04/23 01:06:24;;;;;;;;;;;;;;;3.23;75.19;97918.61;108556;1271;22536;-72
2022/04/23 01:08:51;;;;;;;;;;;;;;;3.23;76.01;97914.61;108565;1271;22595;-71
2022/04/23 01:11:18;;;;;;;;;;;;;;;3.23;76.55;97917.71;108591;1271;22578;-73
2022/04/23 01:13:45;;;;;;;;;;;;;;;3.21;76.49;97915.59;108541;1270;23069;-71
2022/04/23 01:16:12;;;;;;;;;;;;;;;3.20;76.31;97915.13;108563;1271;22694;-71
2022/04/23 01:18:42;;;;;;;;;;;;;;;3.18;76.20;97912.13;108836;1271;25296;-74
2022/04/23 01:21:10;;;;;;;;;;;;;;;3.13;75.94;97911.65;108546;1271;22516;-74
2022/04/23 01:23:41;;;;;;;;;;;;;;;3.10;75.60;97906.81;108534;1271;22567;-75
2022/04/23 01:26:10;;;;;;;;;;;;;;;3.07;75.39;97910.39;108550;1270;22700;-75
2022/04/23 01:28:37;;;;;;;;;;;;;;;3.07;75.21;97908.17;108577;1271;22615;-70
2022/04/23 01:31:05;;;;;;;;;;;;;;;3.07;75.47;97908.18;108570;1271;22502;-74
2022/04/23 01:33:35;;;;;;;;;;;;;;;3.06;75.87;97910.26;108589;1271;22532;-72
2022/04/23 01:36:04;;;;;;;;;;;;;;;3.03;76.07;97911.48;108554;1271;23088;-71
2022/04/23 01:38:32;;;;;;;;;;;;;;;2.98;76.01;97912.73;108553;1270;22593;-72
2022/04/23 01:40:59;;;;;;;;;;;;;;;2.93;75.96;97912.77;108578;1271;22787;-71
2022/04/23 01:43:26;;;;;;;;;;;;;;;2.89;75.79;97915.88;108587;1269;22583;-73
2022/04/23 01:45:52;;;;;;;;;;;;;;;2.85;75.75;97913.83;108522;1271;22541;-71
2022/04/23 01:48:20;;;;;;;;;;;;;;;2.81;75.35;97913.86;108521;1271;22535;-73
2022/04/23 01:50:46;;;;;;;;;;;;;;;2.78;75.32;97918.09;108571;1270;22538;-71
2022/04/23 01:53:13;;;;;;;;;;;;;;;2.75;75.36;97916.37;108576;1271;22509;-73
2022/04/23 01:55:40;;;;;;;;;;;;;;;2.74;75.18;97915.73;108546;1271;22603;-70
2022/04/23 01:58:07;;;;;;;;;;;;;;;2.75;75.11;97915.16;108567;1271;22611;-70
2022/04/23 02:00:34;;;;;;;;;;;;;;;2.75;75.48;97915.83;108341;1271;268863;-71
2022/04/23 02:03:01;;;;;;;;;;;;;;;2.75;75.95;97912.23;108558;1271;22519;-72
2022/04/23 02:05:28;;;;;;;;;;;;;;;2.74;76.31;97917.62;108566;1271;22520;-75
2022/04/23 02:07:54;;;;;;;;;;;;;;;2.69;76.26;97919.36;108553;1271;22662;-74
2022/04/23 02:10:21;;;;;;;;;;;;;;;2.65;76.12;97925.38;108568;1271;25418;-70
2022/04/23 02:12:48;;;;;;;;;;;;;;;2.61;75.88;97924.18;108545;1271;22581;-73
2022/04/23 02:15:16;;;;;;;;;;;;;;;2.57;75.81;97929.35;108552;1270;23014;-72
2022/04/23 02:17:43;;;;;;;;;;;;;;;2.54;75.29;97929.31;108578;1271;22517;-72
2022/04/23 02:20:15;;;;;;;;;;;;;;;2.49;75.26;97930.73;108582;1271;22554;-74
2022/04/23 02:22:44;;;;;;;;;;;;;;;2.45;75.19;97927.83;108564;1271;22548;-71
2022/04/23 02:25:11;;;;;;;;;;;;;;;2.44;75.09;97930.09;108540;1271;22725;-73
2022/04/23 02:27:42;;;;;;;;;;;;;;;2.42;75.50;97930.52;108582;1271;22598;-72
2022/04/23 02:30:10;;;;;;;;;;;;;;;2.41;76.34;97935.58;108546;1271;22506;-71
2022/04/23 02:32:36;;;;;;;;;;;;;;;2.38;76.83;97937.39;108747;1271;22600;-71
2022/04/23 02:35:05;;;;;;;;;;;;;;;2.36;77.03;97936.48;108565;1271;23345;-70
2022/04/23 02:37:34;;;;;;;;;;;;;;;2.33;76.75;97938.86;108561;1271;22552;-71
2022/04/23 02:40:10;;;;;;;;;;;;;;;2.29;76.71;97938.84;108576;1271;22582;-71
2022/04/23 02:42:37;;;;;;;;;;;;;;;2.27;76.47;97940.45;108564;1270;22525;-70
2022/04/23 02:45:05;;;;;;;;;;;;;;;2.25;75.93;97940.37;108555;1271;25281;-70
2022/04/23 02:47:48;;;;;;;;;;;;;;;2.22;75.84;97941.04;108666;1271;22528;-70
2022/04/23 02:50:16;;;;;;;;;;;;;;;2.17;75.82;97944.64;108551;1271;22506;-70
2022/04/23 02:52:43;;;;;;;;;;;;;;;2.17;75.86;97951.55;108566;1270;23045;-70
2022/04/23 02:55:11;;;;;;;;;;;;;;;2.16;75.76;97951.08;108536;1271;22821;-70
2022/04/23 02:57:41;;;;;;;;;;;;;;;2.14;76.16;97950.64;108709;1270;23191;-70
2022/04/23 03:00:10;;;;;;;;;;;;;;;2.13;76.81;97950.67;108546;1271;22521;-72
2022/04/23 03:02:40;;;;;;;;;;;;;;;2.11;77.00;97953.51;108546;1271;23148;-70
2022/04/23 03:05:10;;;;;;;;;;;;;;;2.09;77.03;97952.04;108526;1271;22598;-70
2022/04/23 03:07:39;;;;;;;;;;;;;;;2.07;76.75;97952.15;108518;1271;22535;-70
2022/04/23 03:10:07;;;;;;;;;;;;;;;2.03;76.65;97949.89;108552;1271;22674;-71
2022/04/23 03:12:36;;;;;;;;;;;;;;;1.99;76.66;97950.56;108540;1271;22676;-72
2022/04/23 03:15:04;;;;;;;;;;;;;;;1.96;76.60;97952.11;108537;1270;24243;-72
2022/04/23 03:17:31;;;;;;;;;;;;;;;1.93;76.53;97948.27;108509;1271;22800;-71
2022/04/23 03:19:58;;;;;;;;;;;;;;;1.94;76.36;97950.11;108527;1271;23268;-71
2022/04/23 03:22:25;;;;;;;;;;;;;;;1.97;76.55;97951.40;108569;1271;22525;-71
2022/04/23 03:24:51;;;;;;;;;;;;;;;1.98;76.78;97951.48;108532;1271;22639;-73
2022/04/23 03:27:18;;;;;;;;;;;;;;;1.97;77.24;97957.36;108518;1271;22593;-70
2022/04/23 03:29:45;;;;;;;;;;;;;;;1.95;77.44;97961.22;108482;1271;23217;-70
2022/04/23 03:32:12;;;;;;;;;;;;;;;1.93;77.27;97963.04;108504;1271;24457;-71
2022/04/23 03:34:39;;;;;;;;;;;;;;;1.90;77.11;97964.67;108494;1270;22534;-70
2022/04/23 03:37:05;;;;;;;;;;;;;;;1.88;76.78;97963.55;108512;1271;22724;-70
2022/04/23 03:39:33;;;;;;;;;;;;;;;1.86;76.49;97964.02;108562;1269;22544;-71
2022/04/23 03:42:01;;;;;;;;;;;;;;;1.80;76.39;97964.56;108593;1271;22717;-70
2022/04/23 03:44:29;;;;;;;;;;;;;;;1.74;76.09;97962.07;108562;1271;25194;-72
2022/04/23 03:46:57;;;;;;;;;;;;;;;1.72;76.06;97964.23;108533;1271;24298;-70
2022/04/23 03:49:24;;;;;;;;;;;;;;;1.70;75.83;97965.17;108525;1270;22692;-70
2022/04/23 03:51:51;;;;;;;;;;;;;;;1.67;76.19;97960.64;108546;1270;22538;-70
2022/04/23 03:54:18;;;;;;;;;;;;;;;1.65;76.49;97962.80;108558;1271;23082;-70
2022/04/23 03:56:46;;;;;;;;;;;;;;;1.61;76.69;97966.21;108531;1269;22626;-70
2022/04/23 03:59:14;;;;;;;;;;;;;;;1.55;76.62;97966.61;108678;1271;22517;-70
2022/04/23 04:01:41;;;;;;;;;;;;;;;1.51;76.55;97973.64;108533;1271;22533;-70
2022/04/23 04:04:08;;;;;;;;;;;;;;;1.47;76.38;97972.94;108537;1271;22564;-70
2022/04/23 04:06:35;;;;;;;;;;;;;;;1.44;76.23;97971.17;108551;1270;22520;-71
2022/04/23 04:09:02;;;;;;;;;;;;;;;1.39;75.92;97975.13;108543;1271;22515;-70
2022/04/23 04:12:01;;;;;;;;;;;;;;;1.35;75.93;97973.91;108555;1271;24261;-71
2022/04/23 04:14:16;;;;;;;;;;;;;;;1.36;75.86;97980.24;108657;1271;22525;-71
2022/04/23 04:16:43;;;;;;;;;;;;;;;1.39;75.94;97986.13;108544;1271;22532;-70
2022/04/23 04:19:09;;;;;;;;;;;;;;;1.44;76.36;97986.45;108575;1271;23197;-72
2022/04/23 04:21:36;;;;;;;;;;;;;;;1.47;76.72;97986.48;108588;1271;22529;-74
2022/04/23 04:24:03;;;;;;;;;;;;;;;1.49;76.85;97986.42;108552;1271;22845;-73
2022/04/23 04:26:31;;;;;;;;;;;;;;;1.52;76.82;97984.92;108530;1271;22743;-72
2022/04/23 04:28:57;;;;;;;;;;;;;;;1.56;76.74;97988.88;108546;1271;22525;-73
2022/04/23 04:34:09;;;;;;;;;;;;;;;1.64;76.23;97998.88;108581;1271;22582;-70
2022/04/23 04:36:36;;;;;;;;;;;;;;;1.68;76.67;98001.30;108568;1271;22581;-70
2022/04/23 04:39:03;;;;;;;;;;;;;;;1.74;76.27;97996.23;108575;1271;24565;-70
2022/04/23 04:41:31;;;;;;;;;;;;;;;1.80;75.85;97999.27;108528;1271;22550;-70
2022/04/23 04:43:58;;;;;;;;;;;;;;;1.92;75.81;97995.36;108544;1271;22528;-71
2022/04/23 04:46:25;;;;;;;;;;;;;;;2.15;76.72;97998.51;108579;1271;22573;-70
2022/04/23 04:48:52;;;;;;;;;;;;;;;2.48;77.68;98007.26;108530;1271;22581;-71
2022/04/23 04:51:19;;;;;;;;;;;;;;;2.89;78.82;98001.88;108546;1271;22551;-71
2022/04/23 04:53:45;;;;;;;;;;;;;;;3.25;79.74;97994.89;108569;1271;22591;-70
2022/04/23 04:56:12;;;;;;;;;;;;;;;3.60;80.10;97994.14;108543;1271;22590;-71
2022/04/23 04:58:43;;;;;;;;;;;;;;;3.94;79.72;97992.98;108548;1271;22827;-71
2022/04/23 05:01:10;;;;;;;;;;;;;;;4.32;79.54;97988.56;108557;1271;23179;-70
2022/04/23 05:03:38;;;;;;;;;;;;;;;4.65;78.46;97993.77;108587;1271;22700;-77
2022/04/23 05:06:05;;;;;;;;;;;;;;;4.99;77.99;97993.18;108549;1271;22626;-74
2022/04/23 05:08:34;;;;;;;;;;;;;;;5.40;76.87;97992.70;108580;1271;25340;-72
2022/04/23 05:11:01;;;;;;;;;;;;;;;5.73;75.60;97985.15;108568;1270;22614;-75
2022/04/23 05:13:28;;;;;;;;;;;;;;;5.94;74.52;97985.92;108560;1271;22581;-73
2022/04/23 05:15:55;;;;;;;;;;;;;;;6.03;73.76;97984.16;108567;1270;25368;-75
2022/04/23 05:18:22;;;;;;;;;;;;;;;6.08;73.52;97980.48;108548;1271;22661;-71
2022/04/23 05:20:49;;;;;;;;;;;;;;;6.13;72.94;97981.06;108583;1270;22607;-71
2022/04/23 05:23:16;;;;;;;;;;;;;;;6.12;72.06;97986.28;108561;1270;22515;-71
2022/04/23 05:25:43;;;;;;;;;;;;;;;6.08;72.09;97992.02;108554;1271;22534;-71
2022/04/23 05:28:11;;;;;;;;;;;;;;;6.09;72.09;97992.02;108549;1271;25267;-71
2022/04/23 05:30:38;;;;;;;;;;;;;;;6.13;71.92;97992.96;108529;1271;22628;-71
2022/04/23 05:33:05;;;;;;;;;;;;;;;6.20;71.85;97992.21;108572;1271;22575;-71
2022/04/23 05:35:33;;;;;;;;;;;;;;;6.28;71.71;97990.57;108598;1271;22519;-71
2022/04/23 05:38:00;;;;;;;;;;;;;;;6.34;71.39;97997.11;108562;1269;22646;-71
2022/04/23 05:40:27;;;;;;;;;;;;;;;6.39;70.96;98000.95;108593;1271;23089;-72
2022/04/23 05:42:58;;;;;;;;;;;;;;;6.37;70.88;97999.15;108584;1271;22669;-71
2022/04/23 05:45:25;;;;;;;;;;;;;;;6.36;70.50;97995.73;108554;1270;22609;-70
2022/04/23 05:47:53;;;;;;;;;;;;;;;6.35;70.64;97997.58;108617;1271;22520;-71
2022/04/23 05:50:20;;;;;;;;;;;;;;;6.38;70.77;98000.00;108614;1271;22519;-71
2022/04/23 05:52:47;;;;;;;;;;;;;;;6.46;70.67;97998.13;108426;1271;23308;-70
2022/04/23 05:55:14;;;;;;;;;;;;;;;6.56;70.43;97999.98;108560;1271;25377;-70
2022/04/23 05:57:41;;;;;;;;;;;;;;;6.62;70.47;97997.19;108557;1271;22557;-70
2022/04/23 06:00:09;;;;;;;;;;;;;;;6.70;70.12;97996.36;108378;1271;22731;-69
2022/04/23 06:02:35;;;;;;;;;;;;;;;6.77;69.89;98003.05;108559;1271;22619;-70
2022/04/23 06:05:03;;;;;;;;;;;;;;;6.83;69.93;97996.61;108573;1271;22606;-70
2022/04/23 06:07:30;;;;;;;;;;;;;;;6.93;69.84;98002.80;108402;1271;23006;-70
2022/04/23 06:09:57;;;;;;;;;;;;;;;7.00;69.55;98003.05;108565;1271;22547;-70
2022/04/23 06:12:24;;;;;;;;;;;;;;;7.08;69.43;98005.48;108425;1271;22731;-70
2022/04/23 06:14:51;;;;;;;;;;;;;;;7.19;69.23;98000.31;108571;1271;22545;-71
2022/04/23 06:17:23;;;;;;;;;;;;;;;7.26;68.75;97997.11;108578;1271;22547;-72
2022/04/23 06:19:50;;;;;;;;;;;;;;;7.37;68.74;97992.29;108403;1271;22539;-71
2022/04/23 06:22:16;;;;;;;;;;;;;;;7.47;68.86;97989.87;108533;1271;24443;-71
2022/04/23 06:24:43;;;;;;;;;;;;;;;7.58;69.12;97989.70;108397;1271;23207;-74
2022/04/23 06:27:10;;;;;;;;;;;;;;;7.65;68.79;97993.80;108519;1271;22848;-71
2022/04/23 06:29:41;;;;;;;;;;;;;;;7.71;68.01;98001.88;108510;1271;22518;-72
2022/04/23 06:32:10;;;;;;;;;;;;;;;7.78;67.99;98000.40;108343;1274;22664;-72
2022/04/23 06:34:38;;;;;;;;;;;;;;;7.80;67.44;97997.14;108387;1274;22734;-70
2022/04/23 06:37:05;;;;;;;;;;;;;;;7.84;66.75;97992.92;108417;1274;22528;-75
2022/04/23 06:39:32;;;;;;;;;;;;;;;7.93;66.26;97997.21;108391;1274;22508;-71
2022/04/23 06:41:59;;;;;;;;;;;;;;;8.03;66.62;97996.58;108380;1274;22572;-70
2022/04/23 06:44:26;;;;;;;;;;;;;;;8.09;66.05;97999.93;108398;1271;23780;-71
2022/04/23 06:46:52;;;;;;;;;;;;;;;8.14;65.44;97993.88;108409;1271;22517;-71
2022/04/23 06:49:19;;;;;;;;;;;;;;;8.21;64.87;97996.01;108409;1270;23440;-72
2022/04/23 06:51:46;;;;;;;;;;;;;;;8.32;65.09;97996.74;108431;1271;22580;-72
2022/04/23 06:54:13;;;;;;;;;;;;;;;8.42;64.91;97987.41;108416;1271;22678;-69
2022/04/23 06:56:40;;;;;;;;;;;;;;;8.51;64.26;97992.84;108403;1271;25263;-72
2022/04/23 06:59:07;;;;;;;;;;;;;;;8.61;63.73;97992.02;108386;1271;22521;-70
2022/04/23 07:01:33;;;;;;;;;;;;;;;8.69;63.12;97989.75;108388;1271;22699;-70
2022/04/23 07:04:00;;;;;;;;;;;;;;;8.77;62.62;97987.98;108401;1271;22656;-70
2022/04/23 07:06:27;;;;;;;;;;;;;;;8.82;62.07;97989.88;108389;1271;22539;-70
2022/04/23 07:08:54;;;;;;;;;;;;;;;8.85;61.12;97991.62;108392;1271;22569;-70
2022/04/23 07:11:23;;;;;;;;;;;;;;;8.89;61.16;97991.30;108357;1271;22502;-70
2022/04/23 07:13:50;;;;;;;;;;;;;;;8.96;60.52;97994.67;108393;1271;22721;-70
2022/04/23 07:16:17;;;;;;;;;;;;;;;9.03;60.71;97995.20;108390;1271;22515;-71
2022/04/23 07:18:44;;;;;;;;;;;;;;;9.08;60.04;97992.13;108367;1271;22520;-72
2022/04/23 07:21:10;;;;;;;;;;;;;;;9.15;59.95;97991.77;108384;1271;22529;-71
2022/04/23 07:26:23;;;;;;;;;;;;;;;9.31;58.15;97994.27;108381;1271;24374;-71
2022/04/23 07:28:50;;;;;;;;;;;;;;;9.36;57.98;97989.63;108404;1271;22503;-70
2022/04/23 07:31:17;;;;;;;;;;;;;;;9.39;58.77;97983.35;108480;1271;25668;-70
2022/04/23 07:39:15;;;;;;;;;;;;;;;9.62;57.69;97988.94;108534;1271;22553;-72
2022/04/23 07:41:43;;;;;;;;;;;;;;;9.71;58.09;97985.36;108540;1271;22625;-72
2022/04/23 07:44:10;;;;;;;;;;;;;;;9.81;57.70;97986.93;108545;1269;22516;-73
2022/04/23 07:46:39;;;;;;;;;;;;;;;9.86;57.27;97980.98;108531;1271;22551;-70
2022/04/23 07:49:05;;;;;;;;;;;;;;;9.92;56.77;97980.23;108551;1270;22505;-72
2022/04/23 07:51:32;;;;;;;;;;;;;;;9.99;56.95;97981.95;108543;1271;22539;-72
2022/04/23 07:53:59;;;;;;;;;;;;;;;10.09;57.09;97976.89;108540;1271;22577;-72
2022/04/23 07:56:26;;;;;;;;;;;;;;;10.16;56.86;97974.94;108546;1271;24250;-73
2022/04/23 07:58:53;;;;;;;;;;;;;;;10.26;56.88;97973.59;108529;1271;22518;-72
2022/04/23 08:01:20;;;;;;;;;;;;;;;10.36;56.54;97968.95;108552;1271;22577;-70
2022/04/23 08:03:47;;;;;;;;;;;;;;;10.45;57.22;97967.58;108566;1271;22691;-71
2022/04/23 08:06:14;;;;;;;;;;;;;;;10.48;56.96;97962.46;108521;1271;22566;-71
2022/04/23 08:08:41;;;;;;;;;;;;;;;10.52;56.30;97963.55;108551;1271;24243;-71
2022/04/23 08:11:07;;;;;;;;;;;;;;;10.60;56.30;97955.67;108496;1271;22594;-71
2022/04/23 08:13:34;;;;;;;;;;;;;;;10.60;55.41;97954.59;108494;1271;22701;-70
2022/04/23 08:16:02;;;;;;;;;;;;;;;10.63;55.54;97954.08;108400;1271;22616;-70
2022/04/23 08:18:29;;;;;;;;;;;;;;;10.70;56.04;97956.30;108604;1271;22717;-70
2022/04/23 08:20:56;;;;;;;;;;;;;;;10.74;55.47;97956.36;108587;1271;22537;-72
2022/04/23 08:23:23;;;;;;;;;;;;;;;10.82;55.15;97953.98;108575;1271;22652;-71
2022/04/23 08:25:51;;;;;;;;;;;;;;;10.89;55.68;97948.22;108396;1271;22695;-71
2022/04/23 08:31:03;;;;;;;;;;;;;;;11.00;55.16;97943.73;108545;1271;25242;-71
2022/04/23 08:36:16;;;;;;;;;;;;;;;11.13;54.77;97933.80;108566;1271;22672;-70
2022/04/23 08:38:42;;;;;;;;;;;;;;;11.23;54.54;97934.54;108549;1270;25520;-74
2022/04/23 08:41:11;;;;;;;;;;;;;;;11.36;54.35;97927.26;108564;1271;22552;-72
2022/04/23 08:43:41;;;;;;;;;;;;;;;11.54;54.95;97932.08;108605;1270;22593;-73
2022/04/23 08:46:09;;;;;;;;;;;;;;;11.71;53.42;97935.24;108573;1271;22536;-72
2022/04/23 08:48:41;;;;;;;;;;;;;;;11.82;53.15;97931.93;108566;1271;22656;-71
2022/04/23 08:51:12;;;;;;;;;;;;;;;11.95;52.58;97925.29;108547;1271;22523;-70
2022/04/23 08:53:43;;;;;;;;;;;;;;;12.09;51.67;97920.33;108560;1270;22524;-75
2022/04/23 08:56:10;;;;;;;;;;;;;;;12.21;51.49;97920.86;108534;1271;22521;-70
2022/04/23 08:58:39;;;;;;;;;;;;;;;12.43;51.76;97920.98;108476;1271;22506;-70
2022/04/23 09:01:06;;;;;;;;;;;;;;;12.73;51.91;97915.94;108487;1271;22516;-73
2022/04/23 09:03:33;;;;;;;;;;;;;;;12.97;50.52;97915.26;108561;1271;23968;-73
2022/04/23 09:06:00;;;;;;;;;;;;;;;13.20;49.95;97912.21;108588;1271;24443;-71
2022/04/23 09:08:29;;;;;;;;;;;;;;;13.47;49.20;97915.14;108530;1270;22805;-70
2022/04/23 09:10:57;;;;;;;;;;;;;;;13.67;48.24;97918.27;108548;1271;22541;-71
2022/04/23 09:13:28;;;;;;;;;;;;;;;13.86;48.37;97915.16;108546;1271;25292;-71
2022/04/23 09:24:43;;;;;;;;;;;;;;;14.66;49.72;97900.48;108528;1271;22533;-70
2022/04/23 09:27:10;;;;;;;;;;;;;;;14.90;48.05;97901.84;108523;1271;22528;-70
2022/04/23 09:29:37;;;;;;;;;;;;;;;15.06;47.99;97904.35;108559;1271;22670;-72
2022/04/23 09:32:13;;;;;;;;;;;;;;;15.13;47.81;97904.92;108554;1271;22506;-77
2022/04/23 09:34:40;;;;;;;;;;;;;;;15.10;47.02;97902.62;108543;1271;22525;-77
2022/04/23 09:37:08;;;;;;;;;;;;;;;15.12;46.85;97904.54;108563;1271;22518;-70
2022/04/23 09:39:38;;;;;;;;;;;;;;;14.92;46.23;97900.08;108553;1271;22561;-75
2022/04/23 09:42:15;;;;;;;;;;;;;;;14.76;46.17;97903.94;108557;1271;22586;-74
2022/04/23 09:44:42;;;;;;;;;;;;;;;14.68;46.01;97898.73;108573;1271;22520;-72
2022/04/23 09:47:09;;;;;;;;;;;;;;;14.74;45.62;97900.92;108623;1271;22513;-76
2022/04/23 09:49:38;;;;;;;;;;;;;;;14.81;46.40;97896.23;108749;1271;22525;-77
2022/04/23 09:52:07;;;;;;;;;;;;;;;14.87;45.41;97893.20;108716;1271;22555;-75
2022/04/23 09:54:34;;;;;;;;;;;;;;;14.85;45.41;97888.85;108691;1271;22537;-74
2022/04/23 09:57:01;;;;;;;;;;;;;;;14.91;46.17;97884.75;108733;1271;22616;-73
2022/04/23 09:59:28;;;;;;;;;;;;;;;15.13;45.63;97885.88;108797;1271;22522;-73
2022/04/23 10:01:56;;;;;;;;;;;;;;;15.37;45.88;97885.08;108768;1271;22728;-74
2022/04/23 10:04:26;;;;;;;;;;;;;;;15.65;45.93;97885.38;108768;1271;24229;-77
2022/04/23 10:06:57;;;;;;;;;;;;;;;15.76;45.09;97886.94;108782;1271;25503;-78
2022/04/23 10:09:27;;;;;;;;;;;;;;;15.65;43.16;97889.79;108759;1271;22599;-73
2022/04/23 10:12:05;;;;;;;;;;;;;;;15.55;44.38;97889.89;108771;1271;22504;-74
2022/04/23 10:14:38;;;;;;;;;;;;;;;15.50;44.47;97891.91;108798;1271;25432;-73
2022/04/23 10:17:08;;;;;;;;;;;;;;;15.39;45.10;97889.95;108790;1271;22662;-74
2022/04/23 10:19:35;;;;;;;;;;;;;;;15.35;45.07;97891.57;108817;1271;22949;-74
2022/04/23 10:22:21;;;;;;;;;;;;;;;15.21;45.11;97898.93;108765;1271;22550;-73
2022/04/23 10:25:00;;;;;;;;;;;;;;;15.07;44.91;97900.98;108745;1271;22533;-76
2022/04/23 10:27:28;;;;;;;;;;;;;;;14.96;44.88;97898.16;108789;1270;22509;-77
2022/04/23 10:29:56;;;;;;;;;;;;;;;14.97;45.07;97898.17;108762;1271;22525;-78
2022/04/23 10:32:24;;;;;;;;;;;;;;;15.09;45.41;97900.06;108717;1271;22679;-77
2022/04/23 10:34:51;;;;;;;;;;;;;;;15.24;44.53;97897.52;108748;1271;22537;-77
2022/04/23 10:37:23;;;;;;;;;;;;;;;15.42;44.83;97892.67;108738;1271;26099;-78
2022/04/23 10:39:52;;;;;;;;;;;;;;;15.59;44.94;97891.27;108771;1271;22508;-76
2022/04/23 10:42:21;;;;;;;;;;;;;;;15.75;43.73;97892.64;108763;1271;22603;-79
2022/04/23 10:44:49;;;;;;;;;;;;;;;15.75;42.98;97893.88;108703;1271;26805;-78
2022/04/23 10:47:30;;;;;;;;;;;;;;;15.67;43.16;97898.00;108792;1271;22531;-78
2022/04/23 10:52:42;;;;;;;;;;;;;;;15.20;43.49;97890.80;108754;1271;22509;-76
2022/04/23 10:55:10;;;;;;;;;;;;;;;15.20;42.58;97881.69;108681;1271;22506;-75
2022/04/23 10:57:39;;;;;;;;;;;;;;;15.29;43.15;97885.89;108512;1271;25238;-75
2022/04/23 11:00:15;;;;;;;;;;;;;;;15.48;42.85;97886.48;108535;1270;24212;-73
2022/04/23 11:02:47;;;;;;;;;;;;;;;15.74;42.61;97881.45;108512;1268;22534;-74
2022/04/23 11:13:49;;;;;;;;;;;;;;;16.18;41.36;97885.09;108583;1271;22650;-72
2022/04/23 11:16:17;;;;;;;;;;;;;;;15.98;41.11;97887.17;108414;1271;22521;-72
2022/04/23 11:18:51;;;;;;;;;;;;;;;15.94;40.67;97887.42;108452;1271;22687;-72
2022/04/23 11:21:29;;;;;;;;;;;;;;;15.97;41.45;97883.61;108592;1271;25356;-72
2022/04/23 11:23:56;;;;;;;;;;;;;;;16.08;40.46;97878.80;108618;1271;22493;-71
2022/04/23 11:26:39;;;;;;;;;;;;;;;16.14;40.97;97878.18;108622;1271;23343;-72
2022/04/23 11:29:06;;;;;;;;;;;;;;;16.29;41.18;97878.80;108574;1269;23016;-72
2022/04/23 11:31:33;;;;;;;;;;;;;;;16.37;40.94;97878.55;108560;1271;24295;-72
2022/04/23 11:34:01;;;;;;;;;;;;;;;16.46;41.17;97880.39;108568;1271;25335;-71
2022/04/23 11:36:35;;;;;;;;;;;;;;;16.56;40.24;97882.21;108576;1271;22616;-72
2022/04/23 11:39:09;;;;;;;;;;;;;;;16.57;40.05;97878.48;108511;1271;22519;-72
2022/04/23 11:41:36;;;;;;;;;;;;;;;16.80;40.67;97870.87;108535;1271;23538;-72
2022/04/23 11:44:16;;;;;;;;;;;;;;;17.04;39.27;97869.96;108489;1271;22531;-72
2022/04/23 11:46:44;;;;;;;;;;;;;;;16.97;38.96;97871.25;108727;1270;22564;-73
2022/04/23 11:49:43;;;;;;;;;;;;;;;16.73;38.15;97873.14;108601;1271;23448;-75
2022/04/23 11:52:14;;;;;;;;;;;;;;;16.40;37.73;97875.45;108118;1277;23937;-71
2022/04/23 11:54:42;;;;;;;;;;;;;;;16.15;38.61;97876.66;108087;1277;22637;-72
2022/04/23 11:57:11;;;;;;;;;;;;;;;16.09;39.00;97869.52;108151;1277;22528;-72
2022/04/23 11:59:42;;;;;;;;;;;;;;;16.31;39.73;97871.29;108016;1278;22542;-72
2022/04/23 12:02:19;;;;;;;;;;;;;;;16.38;39.95;97871.61;108086;1277;22847;-72
2022/04/23 12:04:48;;;;;;;;;;;;;;;16.44;40.22;97871.98;108102;1277;22539;-72
2022/04/23 12:07:15;;;;;;;;;;;;;;;16.60;39.73;97874.83;108104;1277;22533;-72
2022/04/23 12:09:45;;;;;;;;;;;;;;;16.59;39.43;97879.13;108132;1277;22548;-73
2022/04/23 12:12:14;;;;;;;;;;;;;;;16.54;39.18;97875.58;108084;1277;22529;-72
2022/04/23 12:14:45;;;;;;;;;;;;;;;16.63;39.33;97874.03;108097;1277;22537;-72
2022/04/23 12:17:19;;;;;;;;;;;;;;;16.71;39.37;97869.50;108108;1277;22513;-72
2022/04/23 12:19:50;;;;;;;;;;;;;;;16.79;39.87;97866.86;108106;1277;22583;-73
2022/04/23 12:22:24;;;;;;;;;;;;;;;16.80;40.15;97862.94;108145;1277;24341;-72
2022/04/23 12:24:51;;;;;;;;;;;;;;;16.78;39.55;97865.04;108104;1277;26369;-73
2022/04/23 12:27:18;;;;;;;;;;;;;;;16.66;39.10;97862.23;108152;1271;22695;-72
2022/04/23 12:41:13;;;;;;;;;;;;;;;16.98;39.31;97856.15;108580;1271;25238;-74
2022/04/23 12:43:40;;;;;;;;;;;;;;;17.08;38.53;97857.02;108553;1271;22534;-73
2022/04/23 12:46:08;;;;;;;;;;;;;;;17.14;38.57;97861.30;108569;1271;22509;-73
2022/04/23 12:48:53;;;;;;;;;;;;;;;17.05;37.91;97860.92;108564;1271;22601;-74
2022/04/23 12:51:20;;;;;;;;;;;;;;;16.82;38.11;97860.63;108713;1270;22526;-74
2022/04/23 12:53:47;;;;;;;;;;;;;;;16.69;38.49;97859.17;108605;1271;22584;-73
2022/04/23 12:56:16;;;;;;;;;;;;;;;16.80;38.70;97858.33;108563;1271;25528;-73
2022/04/23 12:58:43;;;;;;;;;;;;;;;16.82;37.62;97857.23;108578;1271;24263;-73
2022/04/23 13:01:09;;;;;;;;;;;;;;;16.81;37.97;97851.03;108593;1271;23111;-74
2022/04/23 13:03:41;;;;;;;;;;;;;;;16.84;38.68;97839.87;108573;1271;23203;-79
2022/04/23 13:08:54;;;;;;;;;;;;;;;17.28;38.75;97834.04;108605;1270;22509;-74
2022/04/23 13:11:25;;;;;;;;;;;;;;;17.49;38.38;97826.33;108548;1271;26987;-74
2022/04/23 13:13:57;;;;;;;;;;;;;;;17.71;38.65;97828.17;108590;1271;22697;-73
2022/04/23 13:16:25;;;;;;;;;;;;;;;17.59;37.41;97829.63;108588;1271;22543;-72
2022/04/23 13:18:54;;;;;;;;;;;;;;;17.38;37.65;97824.98;108575;1271;24482;-72
2022/04/23 13:21:22;;;;;;;;;;;;;;;17.18;37.82;97825.66;108603;1271;22578;-73
2022/04/23 13:23:51;;;;;;;;;;;;;;;17.00;37.86;97822.66;108862;1270;22671;-73
2022/04/23 13:26:21;;;;;;;;;;;;;;;16.87;38.08;97820.70;108591;1270;22607;-74
2022/04/23 13:28:49;;;;;;;;;;;;;;;16.77;37.62;97816.77;108579;1271;23494;-73
2022/04/23 13:31:16;;;;;;;;;;;;;;;16.73;37.66;97815.30;108595;1271;26258;-73
2022/04/23 13:33:43;;;;;;;;;;;;;;;16.75;37.60;97811.41;108563;1271;23059;-74
2022/04/23 13:36:11;;;;;;;;;;;;;;;17.34;38.29;97807.88;108589;1271;22762;-74
2022/04/23 13:38:38;;;;;;;;;;;;;;;19.36;36.01;97804.67;108625;1271;22509;-74
2022/04/23 13:41:06;;;;;;;;;;;;;;;21.28;32.69;97808.89;108548;1271;22685;-74